sensor_id;sensor_type;location;lat;lon;timestamp;pressure;altitude;pressure_sealevel;temperature;humidity
10470;BME280;5282;47.052;15.458;2023-02-10T00:01:06;99383.81;;;-4.74;100.00
10470;BME280;5282;47.052;15.458;2023-02-10T00:03:33;99387.25;;;-4.71;100.00
10470;BME280;5282;47.052;15.458;2023-02-10T00:06:01;99381.25;;;-4.81;100.00
10470;BME280;5282;47.052;15.458;2023-02-10T00:08:29;99385.56;;;-4.75;100.00
10470;BME280;5282;47.052;15.458;2023-02-10T00:10:58;99387.28;;;-4.74;100.00
10470;BME280;5282;47.052;15.458;2023-02-10T00:13:25;99386.44;;;-4.76;100.00
10470;BME280;5282;47.052;15.458;2023-02-10T00:15:53;99378.75;;;-4.88;100.00
10470;BME280;5282;47.052;15.458;2023-02-10T00:18:20;99385.78;;;-4.89;100.00
10470;BME280;5282;47.052;15.458;2023-02-10T00:20:47;99389.28;;;-4.88;100.00
10470;BME280;5282;47.052;15.458;2023-02-10T00:23:14;99384.94;;;-4.91;100.00
10470;BME280;5282;47.052;15.458;2023-02-10T00:25:41;99378.84;;;-4.93;100.00
10470;BME280;5282;47.052;15.458;2023-02-10T00:28:09;99372.06;;;-5.06;100.00
10470;BME280;5282;47.052;15.458;2023-02-10T00:30:36;99370.25;;;-5.04;100.00
10470;BME280;5282;47.052;15.458;2023-02-10T00:33:04;99376.38;;;-5.01;100.00
10470;BME280;5282;47.052;15.458;2023-02-10T00:35:32;99376.41;;;-5.04;100.00
10470;BME280;5282;47.052;15.458;2023-02-10T00:37:59;99379.88;;;-5.03;100.00
10470;BME280;5282;47.052;15.458;2023-02-10T00:40:26;99380.81;;;-5.06;100.00
10470;BME280;5282;47.052;15.458;2023-02-10T00:42:52;99380.81;;;-5.06;100.00
10470;BME280;5282;47.052;15.458;2023-02-10T00:45:21;99386.03;;;-5.03;100.00
10470;BME280;5282;47.052;15.458;2023-02-10T00:47:48;99387.94;;;-5.14;100.00
10470;BME280;5282;47.052;15.458;2023-02-10T00:50:15;99380.84;;;-5.07;100.00
10470;BME280;5282;47.052;15.458;2023-02-10T00:52:42;99376.28;;;-4.98;100.00
10470;BME280;5282;47.052;15.458;2023-02-10T00:55:09;99383.44;;;-5.06;100.00
10470;BME280;5282;47.052;15.458;2023-02-10T00:57:38;99377.31;;;-5.06;100.00
10470;BME280;5282;47.052;15.458;2023-02-10T01:00:06;99377.63;;;-5.28;100.00
10470;BME280;5282;47.052;15.458;2023-02-10T01:02:35;99378.44;;;-5.23;100.00
10470;BME280;5282;47.052;15.458;2023-02-10T01:05:02;99382.00;;;-5.25;100.00
10470;BME280;5282;47.052;15.458;2023-02-10T01:07:29;99373.22;;;-5.26;100.00
10470;BME280;5282;47.052;15.458;2023-02-10T01:09:57;99387.44;;;-5.38;100.00
10470;BME280;5282;47.052;15.458;2023-02-10T01:12:23;99377.75;;;-5.34;100.00
10470;BME280;5282;47.052;15.458;2023-02-10T01:14:50;99373.31;;;-5.31;100.00
10470;BME280;5282;47.052;15.458;2023-02-10T01:17:17;99377.75;;;-5.34;100.00
10470;BME280;5282;47.052;15.458;2023-02-10T01:19:46;99369.13;;;-5.43;100.00
10470;BME280;5282;47.052;15.458;2023-02-10T01:22:16;99372.78;;;-5.54;100.00
10470;BME280;5282;47.052;15.458;2023-02-10T01:24:43;99383.44;;;-5.65;100.00
10470;BME280;5282;47.052;15.458;2023-02-10T01:27:10;99377.19;;;-5.58;100.00
10470;BME280;5282;47.052;15.458;2023-02-10T01:29:37;99379.78;;;-5.57;100.00
10470;BME280;5282;47.052;15.458;2023-02-10T01:32:04;99380.97;;;-5.79;100.00
10470;BME280;5282;47.052;15.458;2023-02-10T01:34:31;99386.13;;;-5.70;100.00
10470;BME280;5282;47.052;15.458;2023-02-10T01:37:00;99376.16;;;-5.46;100.00
10470;BME280;5282;47.052;15.458;2023-02-10T01:39:27;99372.81;;;-5.56;100.00
10470;BME280;5282;47.052;15.458;2023-02-10T01:41:54;99372.88;;;-5.62;100.00
10470;BME280;5282;47.052;15.458;2023-02-10T01:47:25;99372.31;;;-5.84;100.00
10470;BME280;5282;47.052;15.458;2023-02-10T01:49:51;99377.22;;;-5.60;100.00
10470;BME280;5282;47.052;15.458;2023-02-10T01:52:22;99371.13;;;-5.62;100.00
10470;BME280;5282;47.052;15.458;2023-02-10T01:54:55;99367.69;;;-5.67;100.00
10470;BME280;5282;47.052;15.458;2023-02-10T01:57:26;99378.22;;;-5.68;100.00
10470;BME280;5282;47.052;15.458;2023-02-10T01:59:53;99372.81;;;-5.56;100.00
10470;BME280;5282;47.052;15.458;2023-02-10T02:02:20;99365.84;;;-5.59;100.00
10470;BME280;5282;47.052;15.458;2023-02-10T02:04:49;99361.44;;;-5.58;100.00
10470;BME280;5282;47.052;15.458;2023-02-10T02:07:20;99371.16;;;-5.65;100.00
10470;BME280;5282;47.052;15.458;2023-02-10T02:09:48;99366.66;;;-5.57;100.00
10470;BME280;5282;47.052;15.458;2023-02-10T02:12:21;99364.88;;;-5.51;100.00
10470;BME280;5282;47.052;15.458;2023-02-10T02:14:57;99367.78;;;-5.75;100.00
10470;BME280;5282;47.052;15.458;2023-02-10T02:17:33;99358.00;;;-5.63;100.00
10470;BME280;5282;47.052;15.458;2023-02-10T02:23:31;99355.53;;;-5.73;100.00
10470;BME280;5282;47.052;15.458;2023-02-10T02:26:36;99341.28;;;-5.54;100.00
10470;BME280;5282;47.052;15.458;2023-02-10T02:29:32;99344.88;;;-5.63;100.00
10470;BME280;5282;47.052;15.458;2023-02-10T02:32:12;99351.63;;;-6.08;100.00
10470;BME280;5282;47.052;15.458;2023-02-10T02:34:46;99347.09;;;-5.96;100.00
10470;BME280;5282;47.052;15.458;2023-02-10T02:37:19;99349.66;;;-5.92;100.00
10470;BME280;5282;47.052;15.458;2023-02-10T02:39:52;99348.72;;;-5.88;100.00
10470;BME280;5282;47.052;15.458;2023-02-10T02:42:22;99346.13;;;-5.91;100.00
10470;BME280;5282;47.052;15.458;2023-02-10T02:44:51;99340.97;;;-5.94;100.00
10470;BME280;5282;47.052;15.458;2023-02-10T02:47:29;99344.63;;;-6.04;100.00
10470;BME280;5282;47.052;15.458;2023-02-10T02:50:09;99345.34;;;-5.97;100.00
10470;BME280;5282;47.052;15.458;2023-02-10T02:52:51;99345.38;;;-5.99;100.00
10470;BME280;5282;47.052;15.458;2023-02-10T02:55:31;99341.84;;;-5.95;100.00
10470;BME280;5282;47.052;15.458;2023-02-10T02:58:11;99344.47;;;-5.95;100.00
10470;BME280;5282;47.052;15.458;2023-02-10T03:00:42;99351.47;;;-5.97;100.00
10470;BME280;5282;47.052;15.458;2023-02-10T03:03:12;99354.97;;;-5.98;100.00
10470;BME280;5282;47.052;15.458;2023-02-10T03:05:39;99353.44;;;-6.10;100.00
10470;BME280;5282;47.052;15.458;2023-02-10T03:08:07;99362.16;;;-6.09;100.00
10470;BME280;5282;47.052;15.458;2023-02-10T03:10:34;99353.44;;;-6.10;100.00
10470;BME280;5282;47.052;15.458;2023-02-10T03:13:01;99359.50;;;-6.08;100.00
10470;BME280;5282;47.052;15.458;2023-02-10T03:15:30;99363.13;;;-6.16;100.00
10470;BME280;5282;47.052;15.458;2023-02-10T03:17:57;99359.56;;;-6.12;100.00
10470;BME280;5282;47.052;15.458;2023-02-10T03:20:28;99362.22;;;-6.14;100.00
10470;BME280;5282;47.052;15.458;2023-02-10T03:22:55;99365.81;;;-6.23;100.00
10470;BME280;5282;47.052;15.458;2023-02-10T03:25:23;99365.00;;;-6.28;100.00
10470;BME280;5282;47.052;15.458;2023-02-10T03:27:50;99381.72;;;-6.40;100.00
10470;BME280;5282;47.052;15.458;2023-02-10T03:30:17;99374.66;;;-6.33;100.00
10470;BME280;5282;47.052;15.458;2023-02-10T03:32:43;99370.31;;;-6.34;100.00
10470;BME280;5282;47.052;15.458;2023-02-10T03:35:12;99370.28;;;-6.32;100.00
10470;BME280;5282;47.052;15.458;2023-02-10T03:37:40;99379.31;;;-6.58;100.00
10470;BME280;5282;47.052;15.458;2023-02-10T03:40:08;99375.19;;;-6.86;100.00
10470;BME280;5282;47.052;15.458;2023-02-10T03:42:35;99381.34;;;-6.93;100.00
10470;BME280;5282;47.052;15.458;2023-02-10T03:45:03;99390.72;;;-6.64;100.00
10470;BME280;5282;47.052;15.458;2023-02-10T03:47:30;99389.78;;;-6.58;100.00
10470;BME280;5282;47.052;15.458;2023-02-10T03:49:57;99390.59;;;-6.52;100.00
10470;BME280;5282;47.052;15.458;2023-02-10T03:52:23;99381.88;;;-6.54;100.00
10470;BME280;5282;47.052;15.458;2023-02-10T03:54:52;99393.22;;;-6.53;100.00
10470;BME280;5282;47.052;15.458;2023-02-10T03:57:18;99391.78;;;-6.88;100.00
10470;BME280;5282;47.052;15.458;2023-02-10T03:59:45;99399.78;;;-7.05;100.00
10470;BME280;5282;47.052;15.458;2023-02-10T04:02:12;99397.13;;;-6.96;100.00
10470;BME280;5282;47.052;15.458;2023-02-10T04:04:40;99398.75;;;-6.87;100.00
10470;BME280;5282;47.052;15.458;2023-02-10T04:07:11;99406.53;;;-6.76;100.00
10470;BME280;5282;47.052;15.458;2023-02-10T04:09:42;99406.66;;;-6.89;100.00
10470;BME280;5282;47.052;15.458;2023-02-10T04:12:13;99405.66;;;-6.77;100.00
10470;BME280;5282;47.052;15.458;2023-02-10T04:14:41;99404.78;;;-6.74;100.00
10470;BME280;5282;47.052;15.458;2023-02-10T04:17:14;99402.94;;;-6.66;100.00
10470;BME280;5282;47.052;15.458;2023-02-10T04:19:42;99402.91;;;-6.61;100.00
10470;BME280;5282;47.052;15.458;2023-02-10T04:22:12;99401.25;;;-6.69;100.00
10470;BME280;5282;47.052;15.458;2023-02-10T04:24:40;99398.69;;;-6.78;100.00
10470;BME280;5282;47.052;15.458;2023-02-10T04:27:13;99397.09;;;-6.98;100.00
10470;BME280;5282;47.052;15.458;2023-02-10T04:29:43;99396.09;;;-6.79;100.00
10470;BME280;5282;47.052;15.458;2023-02-10T04:32:16;99395.28;;;-6.89;100.00
10470;BME280;5282;47.052;15.458;2023-02-10T04:34:46;99393.47;;;-6.79;100.00
10470;BME280;5282;47.052;15.458;2023-02-10T04:37:13;99382.19;;;-6.85;100.00
10470;BME280;5282;47.052;15.458;2023-02-10T04:39:40;99380.47;;;-6.92;100.00
10470;BME280;5282;47.052;15.458;2023-02-10T04:42:07;99386.78;;;-7.19;100.00
10470;BME280;5282;47.052;15.458;2023-02-10T04:44:36;99386.94;;;-7.39;100.00
10470;BME280;5282;47.052;15.458;2023-02-10T04:47:03;99388.69;;;-7.41;100.00
10470;BME280;5282;47.052;15.458;2023-02-10T04:49:30;99391.22;;;-7.29;100.00
10470;BME280;5282;47.052;15.458;2023-02-10T04:51:57;99390.19;;;-7.05;100.00
10470;BME280;5282;47.052;15.458;2023-02-10T04:54:24;99399.00;;;-7.15;100.00
10470;BME280;5282;47.052;15.458;2023-02-10T04:56:51;99399.13;;;-7.35;100.00
10470;BME280;5282;47.052;15.458;2023-02-10T04:59:20;99396.56;;;-7.45;100.00
10470;BME280;5282;47.052;15.458;2023-02-10T05:01:49;99403.50;;;-7.34;100.00
10470;BME280;5282;47.052;15.458;2023-02-10T05:04:18;99397.28;;;-7.19;100.00
10470;BME280;5282;47.052;15.458;2023-02-10T05:06:45;99399.88;;;-7.16;100.00
10470;BME280;5282;47.052;15.458;2023-02-10T05:09:12;99406.75;;;-7.04;100.00
10470;BME280;5282;47.052;15.458;2023-02-10T05:11:39;99407.72;;;-7.16;100.00
10470;BME280;5282;47.052;15.458;2023-02-10T05:14:07;99411.13;;;-7.06;100.00
10470;BME280;5282;47.052;15.458;2023-02-10T05:16:34;99410.41;;;-7.30;100.00
10470;BME280;5282;47.052;15.458;2023-02-10T05:19:03;99404.19;;;-7.10;100.00
10470;BME280;5282;47.052;15.458;2023-02-10T05:21:30;99405.28;;;-7.42;100.00
10470;BME280;5282;47.052;15.458;2023-02-10T05:23:58;99415.78;;;-7.52;100.00
10470;BME280;5282;47.052;15.458;2023-02-10T05:26:25;99413.16;;;-7.52;100.00
10470;BME280;5282;47.052;15.458;2023-02-10T05:28:52;99414.75;;;-7.20;100.00
10470;BME280;5282;47.052;15.458;2023-02-10T05:31:19;99406.03;;;-7.22;100.00
10470;BME280;5282;47.052;15.458;2023-02-10T05:33:46;99419.22;;;-7.40;100.00
10470;BME280;5282;47.052;15.458;2023-02-10T05:36:14;99415.59;;;-7.22;100.00
10470;BME280;5282;47.052;15.458;2023-02-10T05:38:41;99412.25;;;-7.40;100.00
10470;BME280;5282;47.052;15.458;2023-02-10T05:41:28;99418.47;;;-7.61;100.00
10470;BME280;5282;47.052;15.458;2023-02-10T05:43:55;99426.31;;;-7.61;100.00
10470;BME280;5282;47.052;15.458;2023-02-10T05:46:22;99409.59;;;-7.35;100.00
10470;BME280;5282;47.052;15.458;2023-02-10T05:48:49;99419.16;;;-7.26;100.00
10470;BME280;5282;47.052;15.458;2023-02-10T05:51:17;99422.63;;;-7.26;100.00
10470;BME280;5282;47.052;15.458;2023-02-10T05:53:44;99428.75;;;-7.25;100.00
10470;BME280;5282;47.052;15.458;2023-02-10T05:56:11;99427.94;;;-7.37;100.00
10470;BME280;5282;47.052;15.458;2023-02-10T05:58:40;99430.66;;;-7.57;100.00
10470;BME280;5282;47.052;15.458;2023-02-10T06:01:08;99430.56;;;-7.40;100.00
10470;BME280;5282;47.052;15.458;2023-02-10T06:03:35;99436.72;;;-7.46;100.00
10470;BME280;5282;47.052;15.458;2023-02-10T06:06:03;99445.50;;;-7.56;100.00
10470;BME280;5282;47.052;15.458;2023-02-10T06:08:31;99441.97;;;-7.53;100.00
10470;BME280;5282;47.052;15.458;2023-02-10T06:10:58;99441.19;;;-7.71;100.00
10470;BME280;5282;47.052;15.458;2023-02-10T06:13:25;99430.75;;;-7.79;100.00
10470;BME280;5282;47.052;15.458;2023-02-10T06:15:52;99433.28;;;-7.57;100.00
10470;BME280;5282;47.052;15.458;2023-02-10T06:18:19;99438.41;;;-7.41;100.00
10470;BME280;5282;47.052;15.458;2023-02-10T06:20:46;99438.28;;;-7.21;100.00
10470;BME280;5282;47.052;15.458;2023-02-10T06:23:14;99441.84;;;-7.30;100.00
10470;BME280;5282;47.052;15.458;2023-02-10T06:25:42;99452.41;;;-7.47;100.00
10470;BME280;5282;47.052;15.458;2023-02-10T06:28:09;99453.16;;;-7.28;100.00
10470;BME280;5282;47.052;15.458;2023-02-10T06:30:36;99447.03;;;-7.21;100.00
10470;BME280;5282;47.052;15.458;2023-02-10T06:33:03;99451.47;;;-7.35;100.00
10470;BME280;5282;47.052;15.458;2023-02-10T06:35:30;99460.22;;;-7.36;100.00
10470;BME280;5282;47.052;15.458;2023-02-10T06:37:57;99463.63;;;-7.22;100.00
10470;BME280;5282;47.052;15.458;2023-02-10T06:40:24;99467.13;;;-7.26;100.00
10470;BME280;5282;47.052;15.458;2023-02-10T06:42:53;99474.13;;;-7.26;100.00
10470;BME280;5282;47.052;15.458;2023-02-10T06:45:19;99475.75;;;-7.08;100.00
10470;BME280;5282;47.052;15.458;2023-02-10T06:47:46;99478.34;;;-7.05;100.00
10470;BME280;5282;47.052;15.458;2023-02-10T06:50:14;99484.28;;;-6.82;100.00
10470;BME280;5282;47.052;15.458;2023-02-10T06:52:43;99482.47;;;-6.69;100.00
10470;BME280;5282;47.052;15.458;2023-02-10T06:55:11;99480.72;;;-6.70;100.00
10470;BME280;5282;47.052;15.458;2023-02-10T06:57:38;99485.88;;;-6.60;100.00
10470;BME280;5282;47.052;15.458;2023-02-10T07:00:08;99491.22;;;-6.73;100.00
10470;BME280;5282;47.052;15.458;2023-02-10T07:02:36;99492.03;;;-6.63;100.00
10470;BME280;5282;47.052;15.458;2023-02-10T07:05:04;99488.50;;;-6.60;100.00
10470;BME280;5282;47.052;15.458;2023-02-10T07:07:33;99498.78;;;-6.37;100.00
10470;BME280;5282;47.052;15.458;2023-02-10T07:10:00;99499.59;;;-6.29;100.00
10470;BME280;5282;47.052;15.458;2023-02-10T07:12:27;99496.09;;;-6.28;100.00
10470;BME280;5282;47.052;15.458;2023-02-10T07:14:54;99503.91;;;-6.22;100.00
10470;BME280;5282;47.052;15.458;2023-02-10T07:17:22;99505.56;;;-6.14;100.00
10470;BME280;5282;47.052;15.458;2023-02-10T07:19:49;99501.09;;;-6.03;100.00
10470;BME280;5282;47.052;15.458;2023-02-10T07:22:16;99501.72;;;-5.84;100.00
10470;BME280;5282;47.052;15.458;2023-02-10T07:24:42;99505.16;;;-5.76;100.00
10470;BME280;5282;47.052;15.458;2023-02-10T07:27:09;99505.13;;;-5.74;100.00
10470;BME280;5282;47.052;15.458;2023-02-10T07:29:36;99505.94;;;-5.69;100.00
10470;BME280;5282;47.052;15.458;2023-02-10T07:32:03;99508.41;;;-5.55;100.00
10470;BME280;5282;47.052;15.458;2023-02-10T07:34:32;99510.81;;;-5.36;100.00
10470;BME280;5282;47.052;15.458;2023-02-10T07:36:59;99503.78;;;-5.34;100.00
10470;BME280;5282;47.052;15.458;2023-02-10T07:39:26;99503.59;;;-5.19;100.00
10470;BME280;5282;47.052;15.458;2023-02-10T07:41:53;99506.91;;;-5.06;100.00
10470;BME280;5282;47.052;15.458;2023-02-10T07:44:20;99498.16;;;-5.05;100.00
10470;BME280;5282;47.052;15.458;2023-02-10T07:46:47;99507.75;;;-5.05;100.00
10470;BME280;5282;47.052;15.458;2023-02-10T07:49:14;99509.25;;;-4.87;100.00
10470;BME280;5282;47.052;15.458;2023-02-10T07:51:42;99500.41;;;-4.80;100.00
10470;BME280;5282;47.052;15.458;2023-02-10T07:54:09;99498.66;;;-4.78;100.00
10470;BME280;5282;47.052;15.458;2023-02-10T07:56:36;99509.81;;;-4.65;100.00
10470;BME280;5282;47.052;15.458;2023-02-10T07:59:03;99511.38;;;-4.53;100.00
10470;BME280;5282;47.052;15.458;2023-02-10T08:01:30;99507.78;;;-4.46;100.00
10470;BME280;5282;47.052;15.458;2023-02-10T08:03:58;99506.56;;;-4.26;100.00
10470;BME280;5282;47.052;15.458;2023-02-10T08:06:25;99508.25;;;-4.22;100.00
10470;BME280;5282;47.052;15.458;2023-02-10T08:08:54;99509.19;;;-4.26;100.00
10470;BME280;5282;47.052;15.458;2023-02-10T08:11:21;99518.66;;;-4.14;98.20
10470;BME280;5282;47.052;15.458;2023-02-10T08:13:48;99520.72;;;-3.85;100.00
10470;BME280;5282;47.052;15.458;2023-02-10T08:16:16;99516.97;;;-3.70;100.00
10470;BME280;5282;47.052;15.458;2023-02-10T08:18:43;99517.97;;;-3.76;100.00
10470;BME280;5282;47.052;15.458;2023-02-10T08:21:10;99522.38;;;-3.78;100.00
10470;BME280;5282;47.052;15.458;2023-02-10T08:23:37;99517.53;;;-3.56;100.00
10470;BME280;5282;47.052;15.458;2023-02-10T08:26:07;99514.06;;;-3.56;100.00
10470;BME280;5282;47.052;15.458;2023-02-10T08:28:36;99506.22;;;-3.59;100.00
10470;BME280;5282;47.052;15.458;2023-02-10T08:31:05;99506.81;;;-3.45;100.00
10470;BME280;5282;47.052;15.458;2023-02-10T08:33:33;99506.00;;;-3.48;100.00
10470;BME280;5282;47.052;15.458;2023-02-10T08:36:03;99506.94;;;-3.51;100.00
10470;BME280;5282;47.052;15.458;2023-02-10T08:38:31;99506.50;;;-3.29;100.00
10470;BME280;5282;47.052;15.458;2023-02-10T08:40:58;99513.50;;;-3.28;100.00
10470;BME280;5282;47.052;15.458;2023-02-10T08:43:27;99516.84;;;-3.20;100.00
10470;BME280;5282;47.052;15.458;2023-02-10T08:45:55;99517.78;;;-3.24;100.00
10470;BME280;5282;47.052;15.458;2023-02-10T08:48:22;99516.44;;;-3.01;100.00
10470;BME280;5282;47.052;15.458;2023-02-10T08:50:49;99523.13;;;-2.86;100.00
10470;BME280;5282;47.052;15.458;2023-02-10T08:53:17;99521.22;;;-2.80;100.00
10470;BME280;5282;47.052;15.458;2023-02-10T08:55:44;99528.50;;;-2.52;100.00
10470;BME280;5282;47.052;15.458;2023-02-10T08:58:11;99516.66;;;-2.35;96.51
10470;BME280;5282;47.052;15.458;2023-02-10T09:00:39;99524.16;;;-2.18;96.82
10470;BME280;5282;47.052;15.458;2023-02-10T09:03:06;99522.09;;;-2.05;95.17
10470;BME280;5282;47.052;15.458;2023-02-10T09:05:35;99524.97;;;-2.14;92.16
10470;BME280;5282;47.052;15.458;2023-02-10T09:08:02;99526.13;;;-2.26;92.93
10470;BME280;5282;47.052;15.458;2023-02-10T09:10:30;99525.06;;;-1.84;91.35
10470;BME280;5282;47.052;15.458;2023-02-10T09:12:57;99517.09;;;-1.81;92.13
10470;BME280;5282;47.052;15.458;2023-02-10T09:15:24;99530.09;;;-1.75;89.10
10470;BME280;5282;47.052;15.458;2023-02-10T09:17:52;99520.00;;;-1.92;87.16
10470;BME280;5282;47.052;15.458;2023-02-10T09:20:19;99531.94;;;-1.44;82.68
10470;BME280;5282;47.052;15.458;2023-02-10T09:22:46;99528.25;;;-1.09;81.82
10470;BME280;5282;47.052;15.458;2023-02-10T09:25:15;99524.06;;;-0.86;75.51
10470;BME280;5282;47.052;15.458;2023-02-10T09:27:42;99526.19;;;-0.69;72.84
10470;BME280;5282;47.052;15.458;2023-02-10T09:30:10;99535.38;;;-0.81;73.12
10470;BME280;5282;47.052;15.458;2023-02-10T09:32:37;99528.59;;;-0.89;73.38
10470;BME280;5282;47.052;15.458;2023-02-10T09:35:05;99532.13;;;-0.90;70.19
10470;BME280;5282;47.052;15.458;2023-02-10T09:37:32;99529.97;;;-0.49;70.85
10470;BME280;5282;47.052;15.458;2023-02-10T09:39:59;99526.53;;;-0.24;68.56
10470;BME280;5282;47.052;15.458;2023-02-10T09:42:36;99529.13;;;0.29;65.89
10470;BME280;5282;47.052;15.458;2023-02-10T09:45:11;99525.75;;;0.51;62.88
10470;BME280;5282;47.052;15.458;2023-02-10T09:47:44;99528.41;;;0.75;60.66
10470;BME280;5282;47.052;15.458;2023-02-10T09:50:28;99529.53;;;0.44;60.38
10470;BME280;5282;47.052;15.458;2023-02-10T09:53:04;99535.41;;;0.27;60.53
10470;BME280;5282;47.052;15.458;2023-02-10T09:55:36;99523.44;;;0.66;60.61
10470;BME280;5282;47.052;15.458;2023-02-10T09:58:13;99521.31;;;1.23;58.99
10470;BME280;5282;47.052;15.458;2023-02-10T10:00:43;99513.06;;;1.31;57.20
10470;BME280;5282;47.052;15.458;2023-02-10T10:03:13;99515.56;;;1.34;56.09
10470;BME280;5282;47.052;15.458;2023-02-10T10:05:47;99519.72;;;1.63;55.33
10470;BME280;5282;47.052;15.458;2023-02-10T10:08:24;99519.28;;;1.74;54.89
10470;BME280;5282;47.052;15.458;2023-02-10T10:10:52;99508.44;;;2.01;53.80
10470;BME280;5282;47.052;15.458;2023-02-10T10:13:24;99510.03;;;2.05;53.08
10470;BME280;5282;47.052;15.458;2023-02-10T10:16:03;99505.28;;;1.91;52.33
10470;BME280;5282;47.052;15.458;2023-02-10T10:18:41;99502.31;;;1.99;53.88
10470;BME280;5282;47.052;15.458;2023-02-10T10:21:17;99498.22;;;2.33;53.21
10470;BME280;5282;47.052;15.458;2023-02-10T10:23:59;99497.66;;;2.85;51.73
10470;BME280;5282;47.052;15.458;2023-02-10T10:26:45;99511.47;;;2.54;50.91
10470;BME280;5282;47.052;15.458;2023-02-10T10:29:25;99492.63;;;2.98;50.38
10470;BME280;5282;47.052;15.458;2023-02-10T10:31:58;99496.22;;;3.35;49.51
10470;BME280;5282;47.052;15.458;2023-02-10T10:34:39;99494.28;;;3.01;49.80
10470;BME280;5282;47.052;15.458;2023-02-10T10:37:14;99489.56;;;3.81;48.67
10470;BME280;5282;47.052;15.458;2023-02-10T10:39:44;99477.66;;;3.70;48.38
10470;BME280;5282;47.052;15.458;2023-02-10T10:42:18;99473.44;;;4.01;48.16
10470;BME280;5282;47.052;15.458;2023-02-10T10:44:48;99471.09;;;3.41;46.54
10470;BME280;5282;47.052;15.458;2023-02-10T10:47:18;99467.31;;;3.99;46.42
10470;BME280;5282;47.052;15.458;2023-02-10T10:49:47;99463.06;;;3.60;47.01
10470;BME280;5282;47.052;15.458;2023-02-10T10:52:27;99469.03;;;4.00;48.06
10470;BME280;5282;47.052;15.458;2023-02-10T10:54:55;99457.31;;;4.72;46.71
10470;BME280;5282;47.052;15.458;2023-02-10T10:57:25;99456.50;;;5.03;44.67
10470;BME280;5282;47.052;15.458;2023-02-10T10:59:55;99459.75;;;5.24;44.57
10470;BME280;5282;47.052;15.458;2023-02-10T11:02:27;99460.53;;;5.27;44.13
10470;BME280;5282;47.052;15.458;2023-02-10T11:05:01;99469.94;;;5.34;44.14
10470;BME280;5282;47.052;15.458;2023-02-10T11:07:33;99456.63;;;4.68;43.97
10470;BME280;5282;47.052;15.458;2023-02-10T11:10:00;99455.81;;;4.32;45.25
10470;BME280;5282;47.052;15.458;2023-02-10T11:12:31;99450.59;;;4.65;45.92
10470;BME280;5282;47.052;15.458;2023-02-10T11:15:00;99445.19;;;4.98;45.33
10470;BME280;5282;47.052;15.458;2023-02-10T11:17:31;99449.34;;;5.20;44.32
10470;BME280;5282;47.052;15.458;2023-02-10T11:20:03;99434.34;;;5.80;42.70
10470;BME280;5282;47.052;15.458;2023-02-10T11:22:32;99430.81;;;5.79;42.58
10470;BME280;5282;47.052;15.458;2023-02-10T11:25:01;99432.03;;;5.27;41.52
10470;BME280;5282;47.052;15.458;2023-02-10T11:27:31;99424.31;;;5.83;42.83
10470;BME280;5282;47.052;15.458;2023-02-10T11:29:58;99419.09;;;6.41;42.45
10470;BME280;5282;47.052;15.458;2023-02-10T11:32:29;99415.78;;;6.52;41.31
10470;BME280;5282;47.052;15.458;2023-02-10T11:34:59;99414.31;;;6.32;40.71
10470;BME280;5282;47.052;15.458;2023-02-10T11:37:29;99408.19;;;6.73;40.21
10470;BME280;5282;47.052;15.458;2023-02-10T11:40:02;99410.09;;;6.86;40.03
10470;BME280;5282;47.052;15.458;2023-02-10T11:42:31;99405.47;;;7.17;39.21
10470;BME280;5282;47.052;15.458;2023-02-10T11:45:00;99410.97;;;7.28;38.59
10470;BME280;5282;47.052;15.458;2023-02-10T11:47:29;99402.06;;;7.28;37.87
10470;BME280;5282;47.052;15.458;2023-02-10T11:49:57;99395.03;;;7.39;38.52
10470;BME280;5282;47.052;15.458;2023-02-10T11:52:27;99395.50;;;7.46;38.12
10470;BME280;5282;47.052;15.458;2023-02-10T11:54:55;99394.16;;;7.39;38.30
10470;BME280;5282;47.052;15.458;2023-02-10T11:57:33;99398.19;;;7.19;38.36
10470;BME280;5282;47.052;15.458;2023-02-10T12:00:25;99392.59;;;7.49;37.70
10470;BME280;5282;47.052;15.458;2023-02-10T12:03:16;99387.69;;;7.29;36.82
10470;BME280;5282;47.052;15.458;2023-02-10T12:05:50;99389.69;;;7.39;37.57
10470;BME280;5282;47.052;15.458;2023-02-10T12:08:27;99395.97;;;6.55;38.21
10470;BME280;5282;47.052;15.458;2023-02-10T12:10:59;99396.34;;;6.77;36.53
10470;BME280;5282;47.052;15.458;2023-02-10T12:13:36;99391.97;;;6.33;38.42
10470;BME280;5282;47.052;15.458;2023-02-10T12:16:14;99394.72;;;6.46;37.85
10470;BME280;5282;47.052;15.458;2023-02-10T12:18:55;99380.94;;;7.23;37.56
10470;BME280;5282;47.052;15.458;2023-02-10T12:21:48;99369.72;;;7.31;37.83
10470;BME280;5282;47.052;15.458;2023-02-10T12:24:28;99373.13;;;6.78;36.89
10470;BME280;5282;47.052;15.458;2023-02-10T12:27:03;99378.00;;;6.42;35.51
10470;BME280;5282;47.052;15.458;2023-02-10T12:29:44;99369.97;;;6.28;35.93
10470;BME280;5282;47.052;15.458;2023-02-10T12:32:22;99370.34;;;6.51;35.95
10470;BME280;5282;47.052;15.458;2023-02-10T12:35:01;99367.94;;;6.89;36.44
10470;BME280;5282;47.052;15.458;2023-02-10T12:37:37;99357.44;;;7.14;34.60
10470;BME280;5282;47.052;15.458;2023-02-10T12:40:22;99358.38;;;6.71;36.65
10470;BME280;5282;47.052;15.458;2023-02-10T12:42:56;99346.78;;;6.85;35.07
10470;BME280;5282;47.052;15.458;2023-02-10T12:45:34;99345.19;;;7.09;34.29
10470;BME280;5282;47.052;15.458;2023-02-10T12:48:18;99345.94;;;7.39;34.24
10470;BME280;5282;47.052;15.458;2023-02-10T12:51:01;99344.47;;;7.48;34.19
10470;BME280;5282;47.052;15.458;2023-02-10T12:53:35;99337.00;;;7.66;33.39
10470;BME280;5282;47.052;15.458;2023-02-10T12:56:08;99333.78;;;7.74;33.85
10470;BME280;5282;47.052;15.458;2023-02-10T12:58:40;99331.50;;;7.67;34.14
10470;BME280;5282;47.052;15.458;2023-02-10T13:01:13;99335.72;;;7.59;34.10
10470;BME280;5282;47.052;15.458;2023-02-10T13:03:44;99329.28;;;6.93;35.80
10470;BME280;5282;47.052;15.458;2023-02-10T13:06:20;99332.66;;;6.83;36.04
10470;BME280;5282;47.052;15.458;2023-02-10T13:08:55;99325.16;;;6.88;35.45
10470;BME280;5282;47.052;15.458;2023-02-10T13:11:31;99326.84;;;7.31;34.64
10470;BME280;5282;47.052;15.458;2023-02-10T13:14:05;99331.75;;;7.24;34.67
10470;BME280;5282;47.052;15.458;2023-02-10T13:16:39;99338.03;;;6.68;34.66